Terminal Aerodrome Forecast
Issued by NWS

Home | Current Version | Previous Version | Text Only | Print | Product List | Glossary On
Versions: 1 2 3 4 5 6 7 8 9 10 11 12 13 14 15
000
FTUS44 KCRP 301400 AAA
TAFALI
TAF AMD
KALI 301453Z 3015/0112 36004KT P6SM VCSH SCT025
      TEMPO 3015/3017 BKN005 OVC100
     FM301700 07009KT P6SM VCTS BKN035CB
     FM302300 09012KT P6SM SCT040
     FM010300 12007KT P6SM SCT015
     FM010700 12004KT 5SM BR SCT012
      TEMPO 0110/0112 2SM BR BKN012=

USA.gov is the U.S. government's official web portal to all federal, state and local government web resources and services.